TimeCDT,TemperatureF,Dew PointF,Humidity,Sea Level PressureIn,VisibilityMPH,Wind Direction,Wind SpeedMPH,Gust SpeedMPH,PrecipitationIn,Events,Conditions,WindDirDegrees,DateUTC
12:15 AM,66.4,62.2,86,30.21,10.0,South,4.6,-,N/A,,Clear,180,2013-08-26 05:15:00
12:35 AM,67.5,62.6,84,30.20,10.0,South,5.8,-,N/A,,Clear,180,2013-08-26 05:35:00
12:55 AM,65.5,62.2,89,30.20,10.0,South,5.8,-,N/A,,Clear,190,2013-08-26 05:55:00
1:15 AM,66.2,61.9,86,30.19,10.0,South,4.6,-,N/A,,Clear,190,2013-08-26 06:15:00
1:35 AM,65.3,61.7,88,30.19,10.0,South,5.8,-,N/A,,Clear,190,2013-08-26 06:35:00
1:55 AM,65.1,61.5,88,30.18,10.0,South,5.8,-,N/A,,Clear,190,2013-08-26 06:55:00
2:15 AM,65.7,61.5,86,30.17,10.0,South,5.8,-,N/A,,Clear,190,2013-08-26 07:15:00
2:35 AM,66.4,61.5,84,30.18,10.0,SSW,8.1,-,N/A,,Clear,210,2013-08-26 07:35:00
2:55 AM,64.9,61.0,87,30.18,10.0,SSW,4.6,-,N/A,,Clear,200,2013-08-26 07:55:00
3:15 AM,65.5,61.0,85,30.18,10.0,SSW,6.9,-,N/A,,Clear,210,2013-08-26 08:15:00
3:35 AM,65.5,61.0,85,30.18,10.0,SSW,5.8,-,N/A,,Clear,210,2013-08-26 08:35:00
3:55 AM,65.5,60.8,85,30.18,10.0,SW,6.9,-,N/A,,Clear,220,2013-08-26 08:55:00
4:15 AM,65.5,60.8,85,30.18,10.0,SW,4.6,-,N/A,,Clear,220,2013-08-26 09:15:00
4:35 AM,64.9,60.8,86,30.18,10.0,SSW,4.6,-,N/A,,Clear,210,2013-08-26 09:35:00
4:55 AM,65.5,61.0,85,30.17,10.0,SSW,5.8,-,N/A,,Clear,200,2013-08-26 09:55:00
5:15 AM,64.6,60.8,88,30.17,10.0,South,4.6,-,N/A,,Clear,190,2013-08-26 10:15:00
5:35 AM,64.4,60.6,88,30.18,10.0,South,4.6,-,N/A,,Clear,180,2013-08-26 10:35:00
5:55 AM,63.7,60.4,89,30.18,10.0,Calm,Calm,-,N/A,,Clear,0,2013-08-26 10:55:00
6:15 AM,63.7,60.3,89,30.18,10.0,Calm,Calm,-,N/A,,Clear,0,2013-08-26 11:15:00
6:35 AM,63.0,60.3,91,30.18,10.0,Calm,Calm,-,N/A,,Clear,0,2013-08-26 11:35:00
6:55 AM,64.6,61.9,91,30.19,10.0,SSW,3.5,-,N/A,,Clear,210,2013-08-26 11:55:00
7:15 AM,67.6,64.4,89,30.19,10.0,SW,4.6,-,N/A,,Clear,220,2013-08-26 12:15:00
7:35 AM,69.1,65.7,89,30.20,10.0,SW,6.9,-,N/A,,Clear,230,2013-08-26 12:35:00
7:55 AM,70.3,66.7,88,30.19,10.0,SW,6.9,-,N/A,,Clear,220,2013-08-26 12:55:00
8:15 AM,72.5,67.6,85,30.20,10.0,WSW,6.9,-,N/A,,Clear,240,2013-08-26 13:15:00
8:35 AM,74.1,68.7,83,30.19,10.0,WSW,6.9,-,N/A,,Clear,250,2013-08-26 13:35:00
8:55 AM,76.1,69.1,79,30.19,10.0,WSW,6.9,-,N/A,,Clear,250,2013-08-26 13:55:00
9:15 AM,77.7,69.8,76,30.19,10.0,West,6.9,-,N/A,,Clear,260,2013-08-26 14:15:00
9:35 AM,79.0,69.8,73,30.18,10.0,WSW,8.1,-,N/A,,Clear,250,2013-08-26 14:35:00
9:55 AM,78.8,69.4,73,30.18,10.0,West,8.1,-,N/A,,Clear,260,2013-08-26 14:55:00
10:15 AM,80.1,69.8,71,30.18,10.0,WSW,8.1,-,N/A,,Clear,250,2013-08-26 15:15:00
10:35 AM,80.8,69.8,69,30.18,10.0,WSW,9.2,-,N/A,,Clear,250,2013-08-26 15:35:00
10:55 AM,81.0,70.7,71,30.19,10.0,WSW,8.1,-,N/A,,Clear,250,2013-08-26 15:55:00
11:15 AM,82.2,71.4,70,30.19,10.0,West,8.1,-,N/A,,Clear,260,2013-08-26 16:15:00
11:35 AM,83.1,71.2,67,30.18,10.0,WSW,5.8,-,N/A,,Clear,250,2013-08-26 16:35:00
11:55 AM,84.2,71.8,66,30.17,10.0,SW,6.9,-,N/A,,Clear,230,2013-08-26 16:55:00
12:15 PM,84.6,71.6,65,30.16,10.0,WSW,8.1,-,N/A,,Clear,250,2013-08-26 17:15:00
12:35 PM,85.5,72.3,65,30.16,10.0,WSW,6.9,-,N/A,,Clear,250,2013-08-26 17:35:00
12:55 PM,85.1,72.0,65,30.15,10.0,West,6.9,-,N/A,,Clear,260,2013-08-26 17:55:00
1:15 PM,86.7,72.9,63,30.14,10.0,WSW,9.2,-,N/A,,Clear,240,2013-08-26 18:15:00
1:35 PM,87.4,73.6,63,30.14,10.0,SW,6.9,-,N/A,,Clear,230,2013-08-26 18:35:00
1:55 PM,87.1,73.0,63,30.13,10.0,SW,9.2,-,N/A,,Clear,230,2013-08-26 18:55:00
2:15 PM,87.6,73.2,62,30.12,10.0,WSW,6.9,-,N/A,,Clear,240,2013-08-26 19:15:00
2:35 PM,87.3,73.2,63,30.12,10.0,SW,9.2,-,N/A,,Scattered Clouds,230,2013-08-26 19:35:00
2:55 PM,86.9,72.9,63,30.11,10.0,WSW,8.1,-,N/A,,Scattered Clouds,240,2013-08-26 19:55:00
3:15 PM,87.6,73.4,63,30.10,10.0,SW,8.1,-,N/A,,Clear,230,2013-08-26 20:15:00
3:35 PM,87.8,73.2,62,30.09,10.0,WSW,9.2,-,N/A,,Clear,240,2013-08-26 20:35:00
3:55 PM,87.8,73.0,61,30.08,10.0,SW,11.5,-,N/A,,Scattered Clouds,220,2013-08-26 20:55:00
4:15 PM,87.8,72.5,60,30.07,10.0,SW,13.8,-,N/A,,Scattered Clouds,230,2013-08-26 21:15:00
4:35 PM,87.3,72.9,62,30.07,10.0,WSW,8.1,-,N/A,,Scattered Clouds,240,2013-08-26 21:35:00
4:55 PM,86.5,72.3,62,30.07,10.0,SW,10.4,-,N/A,,Clear,220,2013-08-26 21:55:00
5:15 PM,86.9,73.2,64,30.07,10.0,WSW,9.2,-,N/A,,Clear,240,2013-08-26 22:15:00
5:35 PM,85.5,72.9,66,30.07,10.0,WSW,6.9,-,N/A,,Clear,250,2013-08-26 22:35:00
5:55 PM,85.3,72.9,66,30.06,10.0,WSW,4.6,-,N/A,,Clear,250,2013-08-26 22:55:00
6:15 PM,83.8,74.1,72,30.06,10.0,WSW,3.5,-,N/A,,Clear,240,2013-08-26 23:15:00
6:35 PM,83.3,73.2,71,30.06,10.0,SW,3.5,-,N/A,,Clear,230,2013-08-26 23:35:00
6:55 PM,82.4,73.2,74,30.06,10.0,SW,3.5,-,N/A,,Clear,230,2013-08-26 23:55:00
7:15 PM,80.6,73.4,79,30.06,10.0,Calm,Calm,-,N/A,,Clear,0,2013-08-27 00:15:00
7:35 PM,79.2,73.4,82,30.06,10.0,SSW,4.6,-,N/A,,Clear,200,2013-08-27 00:35:00
7:55 PM,76.6,72.1,86,30.05,10.0,South,5.8,-,N/A,,Clear,190,2013-08-27 00:55:00
8:15 PM,75.2,71.6,89,30.05,10.0,South,4.6,-,N/A,,Clear,190,2013-08-27 01:15:00
8:35 PM,74.8,71.1,88,30.05,10.0,SSW,4.6,-,N/A,,Clear,200,2013-08-27 01:35:00
8:55 PM,73.9,70.0,87,30.06,10.0,SSW,3.5,-,N/A,,Clear,200,2013-08-27 01:55:00
9:15 PM,73.0,69.6,89,30.06,10.0,SSW,3.5,-,N/A,,Clear,200,2013-08-27 02:15:00
9:35 PM,74.3,69.8,86,30.06,10.0,SSW,4.6,-,N/A,,Clear,210,2013-08-27 02:35:00
9:55 PM,73.8,69.6,87,30.06,10.0,SSW,3.5,-,N/A,,Clear,210,2013-08-27 02:55:00
10:15 PM,73.8,69.6,87,30.07,10.0,SSW,3.5,-,N/A,,Clear,210,2013-08-27 03:15:00
10:35 PM,73.4,69.4,87,30.07,10.0,SSW,4.6,-,N/A,,Clear,210,2013-08-27 03:35:00
10:55 PM,73.6,70.0,88,30.07,10.0,SSW,3.5,-,N/A,,Clear,210,2013-08-27 03:55:00
11:15 PM,73.6,70.2,89,30.06,10.0,SSW,5.8,-,N/A,,Clear,200,2013-08-27 04:15:00
11:35 PM,73.8,70.3,89,30.06,10.0,SSW,6.9,-,N/A,,Clear,210,2013-08-27 04:35:00
11:55 PM,73.4,70.2,90,30.05,10.0,SSW,5.8,-,N/A,,Clear,210,2013-08-27 04:55:00